Time;durP1;ratioP1;P1;durP2;ratioP2;P2;SDS_P1;SDS_P2;PMS_P1;PMS_P2;Temp;Humidity;BMP_temperature;BMP_pressure;BME280_temperature;BME280_humidity;BME280_pressure;Samples;Min_cycle;Max_cycle;Signal;HPM_P1;HPM_P2
2021/07/26 00:00:04;;;;;;;3.45;3.13;;;;;;;;;;1476315;40;20452;-82
2021/07/26 00:01:05;;;;;;;2.70;2.50;;;;;;;;;;1477095;40;20462;-82
2021/07/26 00:02:07;;;;;;;3.55;2.38;;;;;;;;;;1476757;40;20397;-82
2021/07/26 00:03:09;;;;;;;2.53;2.33;;;;;;;;;;1476355;40;20405;-82
2021/07/26 00:04:10;;;;;;;3.47;2.42;;;;;;;;;;1477161;40;21317;-80
2021/07/26 00:05:12;;;;;;;2.90;1.90;;;;;;;;;;1476445;40;20508;-81
2021/07/26 00:06:14;;;;;;;2.55;2.20;;;;;;;;;;1477014;40;20785;-83
2021/07/26 00:07:15;;;;;;;3.28;2.70;;;;;;;;;;1477434;40;21235;-81
2021/07/26 00:08:17;;;;;;;2.38;2.17;;;;;;;;;;1477802;40;20862;-82
2021/07/26 00:09:18;;;;;;;2.65;2.45;;;;;;;;;;1476667;40;20530;-82
2021/07/26 00:10:20;;;;;;;2.80;2.30;;;;;;;;;;1473004;40;20524;-81
2021/07/26 00:11:22;;;;;;;2.10;2.00;;;;;;;;;;1478090;40;20443;-80
2021/07/26 00:12:23;;;;;;;2.53;2.33;;;;;;;;;;1479981;40;20490;-82
2021/07/26 00:13:26;;;;;;;2.83;2.63;;;;;;;;;;1474840;40;20452;-83
2021/07/26 00:14:27;;;;;;;3.10;2.42;;;;;;;;;;1479760;39;20415;-82
2021/07/26 00:15:29;;;;;;;3.95;2.17;;;;;;;;;;1480530;39;20575;-82
2021/07/26 00:16:31;;;;;;;2.70;2.50;;;;;;;;;;1480247;39;20504;-82
2021/07/26 00:17:33;;;;;;;5.85;2.63;;;;;;;;;;1480230;40;20481;-83
2021/07/26 00:18:34;;;;;;;2.90;2.50;;;;;;;;;;1475824;40;20408;-83
2021/07/26 00:19:36;;;;;;;2.65;2.45;;;;;;;;;;1472847;40;20517;-82
2021/07/26 00:20:37;;;;;;;3.92;2.75;;;;;;;;;;1477203;40;20442;-82
2021/07/26 00:21:39;;;;;;;3.17;2.40;;;;;;;;;;1481244;39;20577;-83
2021/07/26 00:22:41;;;;;;;3.30;2.45;;;;;;;;;;1481229;39;21199;-82
2021/07/26 00:23:43;;;;;;;2.85;2.65;;;;;;;;;;1481967;39;20495;-82
2021/07/26 00:24:45;;;;;;;2.47;2.28;;;;;;;;;;1481781;39;20417;-82
2021/07/26 00:25:46;;;;;;;2.85;2.38;;;;;;;;;;1476929;39;20474;-81
2021/07/26 00:26:48;;;;;;;3.10;2.80;;;;;;;;;;1480928;39;20534;-81
2021/07/26 00:27:49;;;;;;;2.67;2.47;;;;;;;;;;1483097;39;20539;-81
2021/07/26 00:28:54;;;;;;;2.50;2.30;;;;;;;;;;1481143;39;20600;-81
2021/07/26 00:29:55;;;;;;;3.40;2.83;;;;;;;;;;1481229;39;20435;-81
2021/07/26 00:30:57;;;;;;;3.50;2.75;;;;;;;;;;1483922;39;20409;-81
2021/07/26 00:31:58;;;;;;;3.83;3.10;;;;;;;;;;1483466;39;20506;-80
2021/07/26 00:33:00;;;;;;;3.30;2.80;;;;;;;;;;1482417;39;20429;-83
2021/07/26 00:34:26;;;;;;;2.75;2.55;;;;;;;;;;1484135;39;20532;-81
2021/07/26 00:35:28;;;;;;;2.70;2.60;;;;;;;;;;1483257;39;20419;-83
2021/07/26 00:36:30;;;;;;;3.03;2.72;;;;;;;;;;1483776;39;20425;-82
2021/07/26 00:37:31;;;;;;;2.42;2.30;;;;;;;;;;1484661;39;20429;-79
2021/07/26 00:38:33;;;;;;;3.00;2.65;;;;;;;;;;1484213;39;20478;-81
2021/07/26 00:39:35;;;;;;;3.28;3.03;;;;;;;;;;1482564;39;20399;-82
2021/07/26 00:40:37;;;;;;;2.92;2.42;;;;;;;;;;1483442;39;21894;-81
2021/07/26 00:41:38;;;;;;;3.00;2.70;;;;;;;;;;1482196;39;20581;-82
2021/07/26 00:42:40;;;;;;;3.42;2.75;;;;;;;;;;1482097;39;20486;-83
2021/07/26 00:43:42;;;;;;;3.92;2.45;;;;;;;;;;1483178;39;20454;-82
2021/07/26 00:44:44;;;;;;;4.15;2.88;;;;;;;;;;1477815;40;21105;-81
2021/07/26 00:45:47;;;;;;;3.03;2.72;;;;;;;;;;1475760;40;20670;-81
2021/07/26 00:46:49;;;;;;;3.60;2.90;;;;;;;;;;1485350;39;20415;-82
2021/07/26 00:47:51;;;;;;;3.25;2.63;;;;;;;;;;1488482;39;20589;-82
2021/07/26 00:48:53;;;;;;;3.22;2.75;;;;;;;;;;1488384;39;20483;-83
2021/07/26 00:49:56;;;;;;;3.15;2.92;;;;;;;;;;1485623;40;20423;-82
2021/07/26 00:50:57;;;;;;;4.38;3.05;;;;;;;;;;1483389;39;20466;-81
2021/07/26 00:52:00;;;;;;;4.20;3.20;;;;;;;;;;1484941;39;20459;-80
2021/07/26 00:53:01;;;;;;;2.90;2.65;;;;;;;;;;1483024;39;20505;-82
2021/07/26 00:54:03;;;;;;;3.80;3.30;;;;;;;;;;1483875;39;20553;-81
2021/07/26 00:55:05;;;;;;;4.20;3.08;;;;;;;;;;1480104;39;20472;-81
2021/07/26 00:56:07;;;;;;;3.50;2.70;;;;;;;;;;1483110;39;20429;-80
2021/07/26 00:57:10;;;;;;;3.70;2.65;;;;;;;;;;1483016;39;20470;-81
2021/07/26 00:58:11;;;;;;;4.10;2.60;;;;;;;;;;1483065;39;20427;-80
2021/07/26 00:59:14;;;;;;;2.90;2.63;;;;;;;;;;1482551;39;20908;-80
2021/07/26 01:00:16;;;;;;;2.83;2.60;;;;;;;;;;1483491;39;20492;-81
2021/07/26 01:01:17;;;;;;;3.47;2.83;;;;;;;;;;1482987;39;21359;-80
2021/07/26 01:02:19;;;;;;;5.03;3.53;;;;;;;;;;1486309;39;20391;-80
2021/07/26 01:03:22;;;;;;;3.75;2.65;;;;;;;;;;1487244;39;20416;-81
2021/07/26 01:04:24;;;;;;;3.05;2.83;;;;;;;;;;1489972;39;20450;-81
2021/07/26 01:05:25;;;;;;;3.05;2.83;;;;;;;;;;1489610;39;20507;-82
2021/07/26 01:06:27;;;;;;;4.80;3.00;;;;;;;;;;1489764;39;20429;-82
2021/07/26 01:07:29;;;;;;;2.80;2.60;;;;;;;;;;1489686;39;20459;-81
2021/07/26 01:08:30;;;;;;;3.38;2.97;;;;;;;;;;1489924;39;20981;-80
2021/07/26 01:09:32;;;;;;;5.22;3.60;;;;;;;;;;1489736;39;20401;-81
2021/07/26 01:10:33;;;;;;;3.50;2.87;;;;;;;;;;1490299;39;20393;-81
2021/07/26 01:11:35;;;;;;;4.03;2.78;;;;;;;;;;1489998;39;20512;-80
2021/07/26 01:12:37;;;;;;;2.75;2.55;;;;;;;;;;1490462;39;20405;-80
2021/07/26 01:13:39;;;;;;;3.38;3.17;;;;;;;;;;1490066;39;20400;-80
2021/07/26 01:14:41;;;;;;;4.30;3.30;;;;;;;;;;1489493;39;20405;-80
2021/07/26 01:15:42;;;;;;;3.53;3.22;;;;;;;;;;1490338;39;20469;-81
2021/07/26 01:16:48;;;;;;;3.90;3.60;;;;;;;;;;1489637;39;20686;-80
2021/07/26 01:18:14;;;;;;;4.05;3.08;;;;;;;;;;1489878;39;20406;-80
2021/07/26 01:19:16;;;;;;;3.67;3.35;;;;;;;;;;1492349;39;20393;-80
2021/07/26 01:20:18;;;;;;;4.35;3.55;;;;;;;;;;1490117;39;20687;-80
2021/07/26 01:21:20;;;;;;;3.83;3.53;;;;;;;;;;1490143;39;20424;-80
2021/07/26 01:22:21;;;;;;;3.63;3.33;;;;;;;;;;1486469;39;21065;-80
2021/07/26 01:23:24;;;;;;;3.60;3.28;;;;;;;;;;1486473;39;21046;-81
2021/07/26 01:24:26;;;;;;;3.70;3.13;;;;;;;;;;1486014;39;21022;-81
2021/07/26 01:25:27;;;;;;;3.35;3.15;;;;;;;;;;1485629;39;20788;-82
2021/07/26 01:26:29;;;;;;;5.03;3.47;;;;;;;;;;1489850;39;20507;-82
2021/07/26 01:27:31;;;;;;;3.58;3.28;;;;;;;;;;1490885;39;20759;-81
2021/07/26 01:28:35;;;;;;;4.18;3.88;;;;;;;;;;1484682;40;20571;-81
2021/07/26 01:29:36;;;;;;;3.20;2.93;;;;;;;;;;1481729;39;20505;-80
2021/07/26 01:30:38;;;;;;;4.70;4.13;;;;;;;;;;1485841;39;20446;-81
2021/07/26 01:31:39;;;;;;;4.35;3.88;;;;;;;;;;1489633;39;20842;-81
2021/07/26 01:32:41;;;;;;;4.20;3.72;;;;;;;;;;1489316;39;20766;-80
2021/07/26 01:33:44;;;;;;;5.40;4.32;;;;;;;;;;1489555;39;20845;-81
2021/07/26 01:34:45;;;;;;;4.20;3.83;;;;;;;;;;1489927;39;20440;-81
2021/07/26 01:35:47;;;;;;;4.28;3.97;;;;;;;;;;1490054;39;20468;-80
2021/07/26 01:36:48;;;;;;;4.82;4.40;;;;;;;;;;1489632;39;20429;-81
2021/07/26 01:37:50;;;;;;;4.80;4.20;;;;;;;;;;1489683;39;20432;-81
2021/07/26 01:38:52;;;;;;;6.60;4.50;;;;;;;;;;1484996;40;20415;-80
2021/07/26 01:39:54;;;;;;;4.97;4.57;;;;;;;;;;1481371;39;20818;-80
2021/07/26 01:41:04;;;;;;;6.03;4.93;;;;;;;;;;1489398;39;20788;-81
2021/07/26 01:42:06;;;;;;;5.40;4.82;;;;;;;;;;1489687;39;20556;-80
2021/07/26 01:43:09;;;;;;;5.30;4.90;;;;;;;;;;1485696;39;21013;-81
2021/07/26 01:44:12;;;;;;;5.43;4.93;;;;;;;;;;1485556;39;20505;-81
2021/07/26 01:45:14;;;;;;;6.05;5.28;;;;;;;;;;1485336;40;20414;-80
2021/07/26 01:46:26;;;;;;;5.63;5.18;;;;;;;;;;1485527;40;20422;-80
2021/07/26 01:47:28;;;;;;;6.78;6.18;;;;;;;;;;1485236;40;20431;-82
2021/07/26 01:48:47;;;;;;;6.80;5.53;;;;;;;;;;1485582;40;20415;-82
2021/07/26 01:50:06;;;;;;;6.32;5.82;;;;;;;;;;1485829;39;20414;-81
2021/07/26 01:51:15;;;;;;;6.03;5.53;;;;;;;;;;1485473;40;20395;-81
2021/07/26 01:52:17;;;;;;;5.35;4.90;;;;;;;;;;1485527;40;20516;-81
2021/07/26 01:53:19;;;;;;;6.65;5.25;;;;;;;;;;1485648;39;20450;-81
2021/07/26 01:54:20;;;;;;;5.78;5.28;;;;;;;;;;1485107;40;20425;-81
2021/07/26 01:55:22;;;;;;;6.18;5.57;;;;;;;;;;1485720;39;20403;-80
2021/07/26 01:56:24;;;;;;;5.90;5.40;;;;;;;;;;1485935;39;20422;-81
2021/07/26 01:57:26;;;;;;;6.45;4.93;;;;;;;;;;1485665;39;20676;-82
2021/07/26 01:58:28;;;;;;;5.85;5.35;;;;;;;;;;1485772;39;20473;-83
2021/07/26 01:59:30;;;;;;;6.47;5.85;;;;;;;;;;1486084;40;20422;-81
2021/07/26 02:00:32;;;;;;;7.20;6.60;;;;;;;;;;1486017;39;20399;-82
2021/07/26 02:01:33;;;;;;;7.60;6.80;;;;;;;;;;1485994;39;20414;-81
2021/07/26 02:02:35;;;;;;;7.38;6.78;;;;;;;;;;1480893;40;20411;-81
2021/07/26 02:03:37;;;;;;;7.13;6.45;;;;;;;;;;1481457;40;20454;-80
2021/07/26 02:04:39;;;;;;;8.40;7.57;;;;;;;;;;1480784;40;20534;-83
2021/07/26 02:05:40;;;;;;;8.48;7.75;;;;;;;;;;1481173;40;20539;-81
2021/07/26 02:06:42;;;;;;;8.60;8.00;;;;;;;;;;1485219;40;20426;-81
2021/07/26 02:07:43;;;;;;;8.43;7.60;;;;;;;;;;1485535;40;20532;-81
2021/07/26 02:08:45;;;;;;;9.32;8.32;;;;;;;;;;1476988;40;20551;-80
2021/07/26 02:09:46;;;;;;;9.95;9.05;;;;;;;;;;1480847;40;20468;-81
2021/07/26 02:10:48;;;;;;;9.77;8.77;;;;;;;;;;1485314;40;20454;-81
2021/07/26 02:11:50;;;;;;;9.73;8.77;;;;;;;;;;1484905;40;21266;-80
2021/07/26 02:12:51;;;;;;;9.27;8.48;;;;;;;;;;1485414;40;20424;-80
2021/07/26 02:13:53;;;;;;;11.15;10.05;;;;;;;;;;1485308;40;20503;-81
2021/07/26 02:14:55;;;;;;;10.73;9.63;;;;;;;;;;1485479;40;20541;-81
2021/07/26 02:15:56;;;;;;;10.43;9.55;;;;;;;;;;1485532;39;20434;-81
2021/07/26 02:16:58;;;;;;;10.27;9.23;;;;;;;;;;1485942;39;20517;-81
2021/07/26 02:18:00;;;;;;;10.35;9.35;;;;;;;;;;1485429;40;21112;-81
2021/07/26 02:19:01;;;;;;;10.60;9.52;;;;;;;;;;1485412;40;20468;-81
2021/07/26 02:20:04;;;;;;;9.57;8.75;;;;;;;;;;1485420;40;20438;-81
2021/07/26 02:21:05;;;;;;;10.90;9.90;;;;;;;;;;1484787;40;20860;-81
2021/07/26 02:22:07;;;;;;;10.80;9.77;;;;;;;;;;1485688;40;20527;-80
2021/07/26 02:23:08;;;;;;;15.80;10.60;;;;;;;;;;1482106;39;20591;-81
2021/07/26 02:24:10;;;;;;;10.75;9.75;;;;;;;;;;1485588;40;20410;-80
2021/07/26 02:25:12;;;;;;;10.52;9.52;;;;;;;;;;1481101;40;20448;-81
2021/07/26 02:26:13;;;;;;;10.73;9.73;;;;;;;;;;1480913;40;21275;-80
2021/07/26 02:27:15;;;;;;;10.57;9.57;;;;;;;;;;1485345;40;20716;-80
2021/07/26 02:28:17;;;;;;;10.75;9.77;;;;;;;;;;1485776;39;20421;-81
2021/07/26 02:29:18;;;;;;;10.32;9.43;;;;;;;;;;1485045;40;20419;-81
2021/07/26 02:30:20;;;;;;;11.45;10.27;;;;;;;;;;1485345;39;20478;-81
2021/07/26 02:31:22;;;;;;;10.88;9.85;;;;;;;;;;1489448;39;20486;-81
2021/07/26 02:32:23;;;;;;;10.50;9.50;;;;;;;;;;1481255;40;21009;-80
2021/07/26 02:33:25;;;;;;;11.18;10.18;;;;;;;;;;1477053;40;20410;-82
2021/07/26 02:34:27;;;;;;;11.52;10.40;;;;;;;;;;1481693;40;20401;-82
2021/07/26 02:35:29;;;;;;;11.55;10.52;;;;;;;;;;1485095;40;20403;-82
2021/07/26 02:36:30;;;;;;;12.52;10.77;;;;;;;;;;1485210;40;20511;-81
2021/07/26 02:37:32;;;;;;;11.65;10.43;;;;;;;;;;1485073;40;20836;-81
2021/07/26 02:38:34;;;;;;;11.82;10.60;;;;;;;;;;1485705;39;20471;-80
2021/07/26 02:39:35;;;;;;;11.00;9.95;;;;;;;;;;1485658;40;20427;-80
2021/07/26 02:40:37;;;;;;;11.70;10.60;;;;;;;;;;1485705;39;20454;-80
2021/07/26 02:41:43;;;;;;;11.77;10.57;;;;;;;;;;1481729;40;20524;-81
2021/07/26 02:42:44;;;;;;;11.95;10.95;;;;;;;;;;1486189;40;20549;-81
2021/07/26 02:43:46;;;;;;;11.90;10.65;;;;;;;;;;1486369;39;21178;-81
2021/07/26 02:44:47;;;;;;;12.60;11.50;;;;;;;;;;1489985;39;20437;-81
2021/07/26 02:45:49;;;;;;;11.80;10.57;;;;;;;;;;1489993;39;20446;-82
2021/07/26 02:46:50;;;;;;;12.43;11.25;;;;;;;;;;1486418;40;20579;-81
2021/07/26 02:47:53;;;;;;;12.65;11.45;;;;;;;;;;1481633;40;20787;-81
2021/07/26 02:48:55;;;;;;;15.43;11.35;;;;;;;;;;1478218;40;20426;-81
2021/07/26 02:49:56;;;;;;;11.87;10.77;;;;;;;;;;1477537;40;20413;-81
2021/07/26 02:50:58;;;;;;;13.43;12.02;;;;;;;;;;1477857;40;20450;-81
2021/07/26 02:51:59;;;;;;;12.32;11.23;;;;;;;;;;1485972;40;21155;-81
2021/07/26 02:53:01;;;;;;;12.25;11.15;;;;;;;;;;1486252;40;20410;-81
2021/07/26 02:54:03;;;;;;;12.65;11.55;;;;;;;;;;1481570;40;20432;-81
2021/07/26 02:55:05;;;;;;;11.88;10.95;;;;;;;;;;1481570;40;20478;-80
2021/07/26 02:56:11;;;;;;;12.48;11.32;;;;;;;;;;1485878;40;20458;-80
2021/07/26 02:57:12;;;;;;;12.30;11.18;;;;;;;;;;1486099;40;20406;-80
2021/07/26 02:58:14;;;;;;;13.15;11.95;;;;;;;;;;1481831;40;20435;-80
2021/07/26 02:59:15;;;;;;;12.00;10.95;;;;;;;;;;1485707;40;20434;-80
2021/07/26 03:00:17;;;;;;;14.05;12.85;;;;;;;;;;1486504;39;20532;-80
2021/07/26 03:01:19;;;;;;;12.73;11.57;;;;;;;;;;1486422;39;20529;-80
2021/07/26 03:02:21;;;;;;;13.40;12.05;;;;;;;;;;1485854;40;20485;-82
2021/07/26 03:03:23;;;;;;;14.15;12.82;;;;;;;;;;1481938;40;20446;-81
2021/07/26 03:04:24;;;;;;;13.57;12.38;;;;;;;;;;1482048;40;20413;-80
2021/07/26 03:05:27;;;;;;;13.98;12.35;;;;;;;;;;1485825;40;20942;-83
2021/07/26 03:06:28;;;;;;;13.23;12.02;;;;;;;;;;1486064;39;20796;-82
2021/07/26 03:07:33;;;;;;;13.17;11.83;;;;;;;;;;1486022;40;20800;-82
2021/07/26 03:08:37;;;;;;;14.75;13.07;;;;;;;;;;1481802;40;20404;-80
2021/07/26 03:09:38;;;;;;;13.95;12.55;;;;;;;;;;1482227;40;20452;-80
2021/07/26 03:10:40;;;;;;;13.63;12.43;;;;;;;;;;1485916;40;20403;-81
2021/07/26 03:11:41;;;;;;;12.52;11.43;;;;;;;;;;1485991;39;20898;-80
2021/07/26 03:12:43;;;;;;;13.45;12.05;;;;;;;;;;1486427;40;20415;-80
2021/07/26 03:13:45;;;;;;;13.23;12.05;;;;;;;;;;1486264;40;20407;-81
2021/07/26 03:14:47;;;;;;;14.18;12.93;;;;;;;;;;1486413;39;20422;-82
2021/07/26 03:15:48;;;;;;;13.30;12.00;;;;;;;;;;1486063;40;20474;-81
2021/07/26 03:16:50;;;;;;;14.70;13.20;;;;;;;;;;1485888;39;20779;-80
2021/07/26 03:17:51;;;;;;;13.90;12.50;;;;;;;;;;1486168;40;20402;-81
2021/07/26 03:18:53;;;;;;;14.50;13.18;;;;;;;;;;1485817;40;20443;-81
2021/07/26 03:19:55;;;;;;;13.25;12.05;;;;;;;;;;1486539;40;20399;-81
2021/07/26 03:20:56;;;;;;;14.65;13.25;;;;;;;;;;1486147;40;20419;-81
2021/07/26 03:22:10;;;;;;;14.65;13.18;;;;;;;;;;1488799;40;20411;-81
2021/07/26 03:23:11;;;;;;;13.75;12.65;;;;;;;;;;1490542;39;20439;-82
2021/07/26 03:24:13;;;;;;;15.15;13.55;;;;;;;;;;1493975;39;20586;-83
2021/07/26 03:25:15;;;;;;;15.85;14.25;;;;;;;;;;1490256;39;20854;-80
2021/07/26 03:26:16;;;;;;;15.23;13.68;;;;;;;;;;1490559;39;20427;-81
2021/07/26 03:27:18;;;;;;;14.88;13.48;;;;;;;;;;1488251;39;20772;-80
2021/07/26 03:28:19;;;;;;;14.10;12.80;;;;;;;;;;1491057;39;20461;-79
2021/07/26 03:29:21;;;;;;;14.65;13.25;;;;;;;;;;1491644;39;20474;-80
2021/07/26 03:30:24;;;;;;;14.80;13.15;;;;;;;;;;1491185;39;20386;-80
2021/07/26 03:31:26;;;;;;;14.88;13.48;;;;;;;;;;1490644;39;21145;-81
2021/07/26 03:32:27;;;;;;;13.82;12.63;;;;;;;;;;1490390;39;20788;-82
2021/07/26 03:33:29;;;;;;;14.38;12.93;;;;;;;;;;1486377;39;20396;-82
2021/07/26 03:34:31;;;;;;;15.73;14.13;;;;;;;;;;1490142;39;20516;-81
2021/07/26 03:35:33;;;;;;;14.02;12.55;;;;;;;;;;1489782;39;20486;-81
2021/07/26 03:36:34;;;;;;;14.85;13.40;;;;;;;;;;1490063;39;20424;-80
2021/07/26 03:37:36;;;;;;;15.68;14.27;;;;;;;;;;1490474;39;20444;-81
2021/07/26 03:38:38;;;;;;;15.77;14.13;;;;;;;;;;1490850;39;20393;-80
2021/07/26 03:39:39;;;;;;;15.98;14.50;;;;;;;;;;1490465;39;21072;-81
2021/07/26 03:40:41;;;;;;;15.75;14.25;;;;;;;;;;1490541;39;20401;-80
2021/07/26 03:41:42;;;;;;;15.20;13.75;;;;;;;;;;1490625;39;20558;-82
2021/07/26 03:42:44;;;;;;;15.25;13.68;;;;;;;;;;1485764;40;20776;-80
2021/07/26 03:43:46;;;;;;;13.95;12.60;;;;;;;;;;1481827;39;20514;-82
2021/07/26 03:44:47;;;;;;;15.20;13.70;;;;;;;;;;1485868;39;20917;-81
2021/07/26 03:45:49;;;;;;;14.68;13.27;;;;;;;;;;1485723;39;20454;-80
2021/07/26 03:46:51;;;;;;;15.33;13.77;;;;;;;;;;1489792;39;20612;-81
2021/07/26 03:47:55;;;;;;;14.57;13.07;;;;;;;;;;1490035;39;20502;-80
2021/07/26 03:48:57;;;;;;;16.05;13.60;;;;;;;;;;1489733;39;20486;-81
2021/07/26 03:49:58;;;;;;;14.75;13.45;;;;;;;;;;1489885;39;20417;-80
2021/07/26 03:51:00;;;;;;;15.20;13.70;;;;;;;;;;1489928;39;20921;-80
2021/07/26 03:52:02;;;;;;;14.05;12.65;;;;;;;;;;1485225;39;20403;-80
2021/07/26 03:53:03;;;;;;;15.35;13.95;;;;;;;;;;1485704;39;20426;-81
2021/07/26 03:54:05;;;;;;;15.18;13.70;;;;;;;;;;1489822;39;20474;-80
2021/07/26 03:55:07;;;;;;;16.55;14.68;;;;;;;;;;1490458;39;20908;-82
2021/07/26 03:56:09;;;;;;;15.45;13.95;;;;;;;;;;1490149;39;20469;-82
2021/07/26 03:57:10;;;;;;;14.65;13.27;;;;;;;;;;1489731;39;21073;-81
2021/07/26 03:58:12;;;;;;;15.98;14.27;;;;;;;;;;1485564;39;21164;-80
2021/07/26 03:59:13;;;;;;;14.98;13.65;;;;;;;;;;1489923;39;20454;-80
2021/07/26 04:00:17;;;;;;;14.88;13.38;;;;;;;;;;1489626;39;20763;-80
2021/07/26 04:01:21;;;;;;;15.18;13.65;;;;;;;;;;1489761;39;20432;-80
2021/07/26 04:02:23;;;;;;;15.13;13.63;;;;;;;;;;1489790;39;20413;-81
2021/07/26 04:03:34;;;;;;;14.85;13.45;;;;;;;;;;1490302;39;20413;-81
2021/07/26 04:04:36;;;;;;;14.85;13.57;;;;;;;;;;1490493;39;20389;-81
2021/07/26 04:05:40;;;;;;;14.02;12.65;;;;;;;;;;1490248;39;20421;-81
2021/07/26 04:06:47;;;;;;;15.38;13.88;;;;;;;;;;1490110;39;20927;-81
2021/07/26 04:07:49;;;;;;;15.95;14.38;;;;;;;;;;1489966;39;20412;-81
2021/07/26 04:08:52;;;;;;;15.30;13.95;;;;;;;;;;1489748;39;20597;-80
2021/07/26 04:10:00;;;;;;;14.77;13.38;;;;;;;;;;1490501;39;20398;-81
2021/07/26 04:12:13;;;;;;;15.57;13.98;;;;;;;;;;1489952;39;20795;-81
2021/07/26 04:13:14;;;;;;;14.55;13.20;;;;;;;;;;1490010;39;20563;-81
2021/07/26 04:14:18;;;;;;;15.73;14.13;;;;;;;;;;1486160;39;20470;-79
2021/07/26 04:15:20;;;;;;;15.23;13.88;;;;;;;;;;1489890;39;20398;-81
2021/07/26 04:16:21;;;;;;;17.33;14.43;;;;;;;;;;1490169;39;20620;-81
2021/07/26 04:17:23;;;;;;;15.80;14.32;;;;;;;;;;1489680;39;20506;-81
2021/07/26 04:18:25;;;;;;;15.82;14.32;;;;;;;;;;1489902;39;20402;-81
2021/07/26 04:19:27;;;;;;;17.00;14.95;;;;;;;;;;1490396;39;20411;-82
2021/07/26 04:20:28;;;;;;;15.60;13.98;;;;;;;;;;1490448;39;20437;-83
2021/07/26 04:21:31;;;;;;;14.98;13.57;;;;;;;;;;1492750;39;21285;-82
2021/07/26 04:22:33;;;;;;;17.30;15.48;;;;;;;;;;1494612;39;20521;-82
2021/07/26 04:23:36;;;;;;;15.32;13.85;;;;;;;;;;1485552;40;20402;-81
2021/07/26 04:24:37;;;;;;;15.82;14.27;;;;;;;;;;1485791;39;20854;-81
2021/07/26 04:25:39;;;;;;;15.43;14.02;;;;;;;;;;1489569;39;20398;-81
2021/07/26 04:26:42;;;;;;;18.70;14.80;;;;;;;;;;1485729;39;20895;-81
2021/07/26 04:27:44;;;;;;;16.65;15.05;;;;;;;;;;1481438;40;20408;-81
2021/07/26 04:28:46;;;;;;;15.47;14.03;;;;;;;;;;1485864;39;20509;-81
2021/07/26 04:29:47;;;;;;;16.33;14.73;;;;;;;;;;1489547;39;20425;-81
2021/07/26 04:30:49;;;;;;;15.93;14.25;;;;;;;;;;1494328;39;20523;-81
2021/07/26 04:31:50;;;;;;;15.50;13.90;;;;;;;;;;1489631;39;21298;-81
2021/07/26 04:32:52;;;;;;;15.82;14.23;;;;;;;;;;1489665;39;20513;-81
2021/07/26 04:33:54;;;;;;;17.08;15.38;;;;;;;;;;1485691;40;20410;-81
2021/07/26 04:34:59;;;;;;;16.90;15.23;;;;;;;;;;1481564;39;20412;-82
2021/07/26 04:36:01;;;;;;;17.02;15.25;;;;;;;;;;1489960;39;20506;-81
2021/07/26 04:37:03;;;;;;;17.70;15.80;;;;;;;;;;1489818;39;20397;-81
2021/07/26 04:38:05;;;;;;;17.77;15.90;;;;;;;;;;1481398;40;20424;-81
2021/07/26 04:39:07;;;;;;;18.67;15.77;;;;;;;;;;1485610;39;20414;-80
2021/07/26 04:40:10;;;;;;;17.40;15.80;;;;;;;;;;1489890;39;20526;-81
2021/07/26 04:41:12;;;;;;;18.90;16.08;;;;;;;;;;1485245;39;20505;-80
2021/07/26 04:42:14;;;;;;;17.90;16.00;;;;;;;;;;1489907;39;20405;-81
2021/07/26 04:43:15;;;;;;;17.92;16.23;;;;;;;;;;1489761;39;20417;-80
2021/07/26 04:44:17;;;;;;;16.58;14.95;;;;;;;;;;1485654;39;20431;-81
2021/07/26 04:45:19;;;;;;;16.15;14.60;;;;;;;;;;1489758;39;20436;-81
2021/07/26 04:46:20;;;;;;;16.52;14.63;;;;;;;;;;1485248;40;20443;-80
2021/07/26 04:47:22;;;;;;;16.55;14.85;;;;;;;;;;1486023;39;20528;-80
2021/07/26 04:48:23;;;;;;;17.00;15.13;;;;;;;;;;1490963;39;20401;-81
2021/07/26 04:49:25;;;;;;;16.48;14.85;;;;;;;;;;1485896;39;20448;-80
2021/07/26 04:50:26;;;;;;;18.75;16.85;;;;;;;;;;1489791;39;20759;-81
2021/07/26 04:51:28;;;;;;;17.00;15.35;;;;;;;;;;1494732;39;20862;-82
2021/07/26 04:52:30;;;;;;;17.38;15.77;;;;;;;;;;1490065;39;20397;-82
2021/07/26 04:53:32;;;;;;;18.15;16.33;;;;;;;;;;1487717;39;20488;-82
2021/07/26 04:54:34;;;;;;;18.50;16.50;;;;;;;;;;1489852;39;20419;-81
2021/07/26 04:55:36;;;;;;;17.45;15.77;;;;;;;;;;1490358;39;20401;-80
2021/07/26 04:56:37;;;;;;;18.40;16.75;;;;;;;;;;1481416;40;20464;-81
2021/07/26 04:57:39;;;;;;;18.30;15.98;;;;;;;;;;1481775;39;20404;-81
2021/07/26 04:58:40;;;;;;;17.67;16.02;;;;;;;;;;1490268;39;20414;-80
2021/07/26 04:59:42;;;;;;;17.95;16.05;;;;;;;;;;1490368;39;20408;-81
2021/07/26 05:00:43;;;;;;;17.20;15.57;;;;;;;;;;1490166;39;20417;-82
2021/07/26 05:01:45;;;;;;;19.65;16.92;;;;;;;;;;1490242;39;20412;-80
2021/07/26 05:02:47;;;;;;;18.90;16.98;;;;;;;;;;1490324;39;20409;-80
2021/07/26 05:03:48;;;;;;;18.73;16.75;;;;;;;;;;1490340;39;20418;-82
2021/07/26 05:04:50;;;;;;;18.25;16.13;;;;;;;;;;1490273;39;20538;-81
2021/07/26 05:05:54;;;;;;;17.95;16.17;;;;;;;;;;1490268;39;20421;-82
2021/07/26 05:07:00;;;;;;;17.70;16.00;;;;;;;;;;1489823;39;20436;-81
2021/07/26 05:08:02;;;;;;;18.17;16.38;;;;;;;;;;1489721;39;20397;-81
2021/07/26 05:09:04;;;;;;;18.27;16.35;;;;;;;;;;1489754;39;20473;-80
2021/07/26 05:10:09;;;;;;;16.95;15.25;;;;;;;;;;1490366;39;20449;-80
2021/07/26 05:11:11;;;;;;;17.20;15.60;;;;;;;;;;1490210;39;20746;-81
2021/07/26 05:12:13;;;;;;;18.42;16.42;;;;;;;;;;1481425;40;20449;-80
2021/07/26 05:13:15;;;;;;;17.27;15.57;;;;;;;;;;1481834;39;20440;-81
2021/07/26 05:14:17;;;;;;;17.73;15.93;;;;;;;;;;1490281;39;20408;-81
2021/07/26 05:15:18;;;;;;;18.13;16.20;;;;;;;;;;1490037;39;20401;-81
2021/07/26 05:16:20;;;;;;;18.08;16.20;;;;;;;;;;1485510;40;20770;-81
2021/07/26 05:17:26;;;;;;;18.17;16.25;;;;;;;;;;1485818;39;20464;-81
2021/07/26 05:18:28;;;;;;;17.67;15.85;;;;;;;;;;1489669;39;20401;-83
2021/07/26 05:19:29;;;;;;;18.70;16.90;;;;;;;;;;1489297;39;20848;-82
2021/07/26 05:20:34;;;;;;;18.42;16.50;;;;;;;;;;1485372;39;20796;-82
2021/07/26 05:21:35;;;;;;;18.17;16.38;;;;;;;;;;1485423;40;20399;-81
2021/07/26 05:22:39;;;;;;;20.50;18.33;;;;;;;;;;1485817;39;20499;-80
2021/07/26 05:23:40;;;;;;;22.42;19.27;;;;;;;;;;1486639;39;21042;-80
2021/07/26 05:24:42;;;;;;;19.67;17.67;;;;;;;;;;1485803;39;20443;-81
2021/07/26 05:25:45;;;;;;;19.85;17.88;;;;;;;;;;1481313;40;20493;-80
2021/07/26 05:26:47;;;;;;;19.13;17.20;;;;;;;;;;1481465;39;20408;-80
2021/07/26 05:27:48;;;;;;;19.42;17.45;;;;;;;;;;1490199;39;20455;-80
2021/07/26 05:28:50;;;;;;;18.40;16.50;;;;;;;;;;1490326;39;20499;-81
2021/07/26 05:29:51;;;;;;;19.05;17.02;;;;;;;;;;1485375;40;20455;-81
2021/07/26 05:30:53;;;;;;;17.40;15.80;;;;;;;;;;1481607;40;20514;-81
2021/07/26 05:31:55;;;;;;;18.23;16.52;;;;;;;;;;1485633;39;20446;-80
2021/07/26 05:32:56;;;;;;;19.45;17.42;;;;;;;;;;1490191;39;20416;-80
2021/07/26 05:33:58;;;;;;;18.48;16.58;;;;;;;;;;1485390;40;20489;-80
2021/07/26 05:34:59;;;;;;;18.70;17.02;;;;;;;;;;1485731;39;20517;-80
2021/07/26 05:36:01;;;;;;;19.70;17.90;;;;;;;;;;1481160;40;20439;-81
2021/07/26 05:37:03;;;;;;;19.67;17.58;;;;;;;;;;1481437;39;20440;-81
2021/07/26 05:38:05;;;;;;;19.40;17.52;;;;;;;;;;1490152;39;20420;-80
2021/07/26 05:39:07;;;;;;;18.73;17.00;;;;;;;;;;1489941;39;20550;-80
2021/07/26 05:40:09;;;;;;;19.17;17.17;;;;;;;;;;1490133;39;20397;-81
2021/07/26 05:41:10;;;;;;;18.17;16.27;;;;;;;;;;1485025;39;20511;-81
2021/07/26 05:42:12;;;;;;;19.77;17.63;;;;;;;;;;1485185;39;20422;-81
2021/07/26 05:43:14;;;;;;;18.98;17.20;;;;;;;;;;1490202;39;20404;-81
2021/07/26 05:44:16;;;;;;;18.17;16.38;;;;;;;;;;1489970;39;21088;-81
2021/07/26 05:45:17;;;;;;;19.77;17.80;;;;;;;;;;1489996;39;20397;-80
2021/07/26 05:46:19;;;;;;;19.00;17.20;;;;;;;;;;1489900;39;20797;-80
2021/07/26 05:47:21;;;;;;;19.88;17.70;;;;;;;;;;1481478;40;20778;-80
2021/07/26 05:48:22;;;;;;;22.30;19.90;;;;;;;;;;1477351;40;20402;-81
2021/07/26 05:49:24;;;;;;;24.75;20.08;;;;;;;;;;1485325;39;20692;-81
2021/07/26 05:50:25;;;;;;;31.55;22.05;;;;;;;;;;1490193;39;20409;-81
2021/07/26 05:51:27;;;;;;;34.15;22.65;;;;;;;;;;1489845;39;20515;-80
2021/07/26 05:52:29;;;;;;;36.53;24.77;;;;;;;;;;1489916;39;20385;-82
2021/07/26 05:53:31;;;;;;;33.72;24.85;;;;;;;;;;1492165;39;20744;-83
2021/07/26 05:54:33;;;;;;;29.40;24.52;;;;;;;;;;1494529;39;20868;-83
2021/07/26 05:55:34;;;;;;;36.40;25.08;;;;;;;;;;1485592;40;21009;-81
2021/07/26 05:56:43;;;;;;;41.00;26.23;;;;;;;;;;1481505;39;20400;-81
2021/07/26 05:57:47;;;;;;;31.90;25.73;;;;;;;;;;1488163;39;20434;-82
2021/07/26 05:58:49;;;;;;;29.75;26.35;;;;;;;;;;1488660;39;20511;-82
2021/07/26 05:59:55;;;;;;;33.30;26.40;;;;;;;;;;1488421;39;20454;-81
2021/07/26 06:01:21;;;;;;;31.88;26.15;;;;;;;;;;1489287;39;20391;-81
2021/07/26 06:02:23;;;;;;;30.77;27.23;;;;;;;;;;1490792;39;20477;-81
2021/07/26 06:03:25;;;;;;;30.48;26.45;;;;;;;;;;1492982;39;20403;-81
2021/07/26 06:04:26;;;;;;;35.10;27.48;;;;;;;;;;1490636;39;20424;-82
2021/07/26 06:05:29;;;;;;;32.92;25.83;;;;;;;;;;1482350;40;20891;-81
2021/07/26 06:06:30;;;;;;;30.65;25.75;;;;;;;;;;1486771;39;20405;-82
2021/07/26 06:07:32;;;;;;;34.72;26.92;;;;;;;;;;1490336;39;20429;-82